createdAt,value
2019-05-07T00:00:45.773Z,20.87
2019-05-07T00:03:14.957Z,16.50
2019-05-07T00:05:44.522Z,19.70
2019-05-07T00:08:13.877Z,23.20
2019-05-07T00:10:43.095Z,24.83
2019-05-07T00:13:12.987Z,18.53
2019-05-07T00:15:42.451Z,19.87
2019-05-07T00:18:12.716Z,19.30
2019-05-07T00:20:42.500Z,21.10
2019-05-07T00:23:12.437Z,22.57
2019-05-07T00:25:42.346Z,20.03
2019-05-07T00:28:12.210Z,17.53
2019-05-07T00:30:42.517Z,24.93
2019-05-07T00:33:13.189Z,18.03
2019-05-07T00:35:44.239Z,22.67
2019-05-07T00:38:15.100Z,20.53
2019-05-07T00:40:49.097Z,23.17
2019-05-07T00:43:22.377Z,22.60
2019-05-07T00:45:57.014Z,19.83
2019-05-07T00:48:26.379Z,17.90
2019-05-07T00:50:57.172Z,17.60
2019-05-07T00:53:26.440Z,27.43
2019-05-07T00:55:55.603Z,20.20
2019-05-07T00:58:26.928Z,22.40
2019-05-07T01:00:55.643Z,20.83
2019-05-07T01:03:24.820Z,21.87
2019-05-07T01:05:54.047Z,25.60
2019-05-07T01:08:23.327Z,32.27
2019-05-07T01:10:53.001Z,19.40
2019-05-07T01:13:23.365Z,21.27
2019-05-07T01:15:53.289Z,18.63
2019-05-07T01:18:23.455Z,21.80
2019-05-07T01:20:53.250Z,18.80
2019-05-07T01:23:23.070Z,22.80
2019-05-07T01:25:52.774Z,22.23
2019-05-07T01:28:22.419Z,22.83
2019-05-07T01:30:52.767Z,24.80
2019-05-07T01:33:35.837Z,24.47
2019-05-07T01:36:06.684Z,20.37
2019-05-07T01:38:35.950Z,29.07
2019-05-07T01:41:05.112Z,22.10
2019-05-07T01:43:35.536Z,20.00
2019-05-07T01:46:05.311Z,26.07
2019-05-07T01:48:34.541Z,24.33
2019-05-07T01:51:04.129Z,17.47
2019-05-07T01:53:33.437Z,22.53
2019-05-07T01:56:03.253Z,19.60
2019-05-07T01:58:33.215Z,24.03
2019-05-07T02:01:02.994Z,19.60
2019-05-07T02:03:43.139Z,22.83
2019-05-07T02:06:17.084Z,27.07
2019-05-07T02:09:04.410Z,21.70
2019-05-07T02:11:37.902Z,22.60
2019-05-07T02:14:07.128Z,24.43
2019-05-07T02:16:36.391Z,22.00
2019-05-07T02:19:05.607Z,26.70
2019-05-07T02:21:34.941Z,21.90
2019-05-07T02:24:04.206Z,20.57
2019-05-07T02:26:33.539Z,25.63
2019-05-07T02:29:03.358Z,29.93
2019-05-07T02:31:33.615Z,28.33
2019-05-07T02:34:03.698Z,23.50
2019-05-07T02:36:34.160Z,24.47
2019-05-07T02:39:13.259Z,23.20
2019-05-07T02:41:44.037Z,29.33
2019-05-07T02:44:14.293Z,21.00
2019-05-07T02:47:00.069Z,22.27
2019-05-07T02:49:37.076Z,25.60
2019-05-07T02:52:13.896Z,26.23
2019-05-07T02:54:56.640Z,25.77
2019-05-07T02:57:27.347Z,27.10
2019-05-07T02:59:56.934Z,25.33
2019-05-07T03:02:26.165Z,19.50
2019-05-07T03:04:55.526Z,22.53
2019-05-07T03:07:24.761Z,29.40
2019-05-07T03:09:54.464Z,26.07
2019-05-07T03:12:24.002Z,22.00
2019-05-07T03:14:54.004Z,21.73
2019-05-07T03:17:24.601Z,23.20
2019-05-07T03:19:55.759Z,21.27
2019-05-07T03:22:24.908Z,24.73
2019-05-07T03:24:58.428Z,23.60
2019-05-07T03:27:27.627Z,28.47
2019-05-07T03:29:58.497Z,24.03
2019-05-07T03:32:40.258Z,26.50
2019-05-07T03:35:27.369Z,24.00
2019-05-07T03:37:55.114Z,25.37
2019-05-07T03:40:24.286Z,23.93
2019-05-07T03:42:53.769Z,25.87
2019-05-07T03:45:24.673Z,23.17
2019-05-07T03:47:55.478Z,30.10
2019-05-07T03:50:24.720Z,29.60
2019-05-07T03:52:54.550Z,24.67
2019-05-07T03:55:23.948Z,28.40
2019-05-07T03:57:53.189Z,22.23
2019-05-07T04:00:23.910Z,25.50
2019-05-07T04:02:53.256Z,25.03
2019-05-07T04:05:23.133Z,28.20
2019-05-07T04:07:53.932Z,30.07
2019-05-07T04:10:23.554Z,27.23
2019-05-07T04:12:53.271Z,34.87
2019-05-07T04:15:23.447Z,33.47
2019-05-07T04:17:53.785Z,27.63
2019-05-07T04:20:24.095Z,30.47
2019-05-07T04:22:53.927Z,24.27
2019-05-07T04:25:24.771Z,22.53
2019-05-07T04:28:03.703Z,24.73
2019-05-07T04:30:33.513Z,25.47
2019-05-07T04:33:04.390Z,28.03
2019-05-07T04:35:47.286Z,24.87
2019-05-07T04:38:16.532Z,28.27
2019-05-07T04:40:47.662Z,24.83
2019-05-07T04:43:16.932Z,24.93
2019-05-07T04:45:46.092Z,22.23
2019-05-07T04:48:15.259Z,22.83
2019-05-07T04:50:47.915Z,32.67
2019-05-07T04:53:17.062Z,23.23
2019-05-07T04:55:46.220Z,26.43
2019-05-07T04:58:15.502Z,21.60
2019-05-07T05:00:44.735Z,31.70
2019-05-07T05:03:25.328Z,20.90
2019-05-07T05:05:54.485Z,23.07
2019-05-07T05:08:23.842Z,21.90
2019-05-07T05:10:54.006Z,19.00
2019-05-07T05:13:24.128Z,21.73
2019-05-07T05:15:53.642Z,25.80
2019-05-07T05:18:23.220Z,26.40
2019-05-07T05:20:59.618Z,25.33
2019-05-07T05:23:32.245Z,21.17
2019-05-07T05:26:01.930Z,24.17
2019-05-07T05:28:32.357Z,27.80
2019-05-07T05:31:03.740Z,21.70
2019-05-07T05:33:32.882Z,25.67
2019-05-07T05:36:03.096Z,22.47
2019-05-07T05:38:33.150Z,23.63
2019-05-07T05:41:02.872Z,20.77
2019-05-07T05:43:36.789Z,23.03
2019-05-07T05:46:07.656Z,24.43
2019-05-07T05:48:36.819Z,20.70
2019-05-07T05:51:07.806Z,21.63
2019-05-07T05:53:52.418Z,20.83
2019-05-07T05:56:32.610Z,14.13
2019-05-07T05:59:27.713Z,17.03
2019-05-07T06:01:54.292Z,14.27
2019-05-07T06:04:27.512Z,15.83
2019-05-07T06:07:11.260Z,16.53
2019-05-07T06:09:52.958Z,16.87
2019-05-07T06:12:39.811Z,16.97
2019-05-07T06:15:16.628Z,16.97
2019-05-07T06:17:47.471Z,18.70
2019-05-07T06:20:25.719Z,13.33
2019-05-07T06:23:14.744Z,16.30
2019-05-07T06:25:45.533Z,12.53
2019-05-07T06:28:14.690Z,17.10
2019-05-07T06:30:43.967Z,17.83
2019-05-07T06:33:13.243Z,14.90
2019-05-07T06:35:43.042Z,16.47
2019-05-07T06:38:13.966Z,14.37
2019-05-07T06:40:53.649Z,13.10
2019-05-07T06:43:27.598Z,10.90
2019-05-07T06:46:01.890Z,12.10
2019-05-07T06:48:38.894Z,12.00
2019-05-07T06:51:03.085Z,14.47
2019-05-07T06:53:33.748Z,11.47
2019-05-07T06:56:05.471Z,14.47
2019-05-07T06:58:45.342Z,12.70
2019-05-07T07:01:18.942Z,13.03
2019-05-07T07:04:05.103Z,9.27
2019-05-07T07:06:37.153Z,15.27
2019-05-07T07:09:15.511Z,12.53
2019-05-07T07:11:46.479Z,9.23
2019-05-07T07:14:16.114Z,8.80
2019-05-07T07:16:45.914Z,8.17
2019-05-07T07:19:15.149Z,12.20
2019-05-07T07:21:44.371Z,7.20
2019-05-07T07:24:13.568Z,9.87
2019-05-07T07:26:42.726Z,11.07
2019-05-07T07:29:13.665Z,10.57
2019-05-07T07:31:52.652Z,8.40
2019-05-07T07:34:22.745Z,12.73
2019-05-07T07:37:06.078Z,10.97
2019-05-07T07:39:28.368Z,7.73
2019-05-07T07:41:59.158Z,12.30
2019-05-07T07:44:28.373Z,8.37
2019-05-07T07:46:58.702Z,14.80
2019-05-07T07:49:27.862Z,9.00
2019-05-07T07:51:58.294Z,9.43
2019-05-07T07:54:27.459Z,5.17
2019-05-07T07:57:12.469Z,6.07
2019-05-07T07:59:49.055Z,8.23
2019-05-07T08:02:22.964Z,9.50
2019-05-07T08:05:01.953Z,10.70
2019-05-07T08:07:29.079Z,7.40
2019-05-07T08:09:58.247Z,11.83
2019-05-07T08:12:27.641Z,11.83
2019-05-07T08:15:13.280Z,7.13
2019-05-07T08:17:29.037Z,9.13
2019-05-07T08:19:58.190Z,10.33
2019-05-07T08:22:27.477Z,10.67
2019-05-07T08:24:56.769Z,10.70
2019-05-07T08:27:26.448Z,10.33
2019-05-07T08:29:55.666Z,12.20
2019-05-07T08:32:29.443Z,8.43
2019-05-07T08:35:06.522Z,10.60
2019-05-07T08:37:35.705Z,8.83
2019-05-07T08:40:06.646Z,10.30
2019-05-07T08:42:35.836Z,11.07
2019-05-07T08:45:24.968Z,10.40
2019-05-07T08:47:56.737Z,9.23
2019-05-07T08:50:25.968Z,11.00
2019-05-07T08:52:55.131Z,5.33
2019-05-07T08:55:24.333Z,5.67
2019-05-07T08:57:53.637Z,10.03
2019-05-07T09:00:23.907Z,9.10
2019-05-07T09:02:53.100Z,6.23
2019-05-07T09:05:22.277Z,12.60
2019-05-07T09:07:51.783Z,7.73
2019-05-07T09:10:21.813Z,7.00
2019-05-07T09:12:52.677Z,6.10
2019-05-07T09:15:22.616Z,10.73
2019-05-07T09:17:52.653Z,5.67
2019-05-07T09:20:22.848Z,9.07
2019-05-07T09:22:52.227Z,10.33
2019-05-07T09:25:22.273Z,11.30
2019-05-07T09:27:53.370Z,4.77
2019-05-07T09:30:42.070Z,5.73
2019-05-07T09:33:13.263Z,6.03
2019-05-07T09:35:44.059Z,6.27
2019-05-07T09:38:13.268Z,3.90
2019-05-07T09:40:42.413Z,9.70
2019-05-07T09:43:11.828Z,9.97
2019-05-07T09:45:42.084Z,6.33
2019-05-07T09:48:12.394Z,6.53
2019-05-07T09:50:42.884Z,6.33
2019-05-07T09:53:12.766Z,9.83
2019-05-07T09:55:42.623Z,6.67
2019-05-07T09:58:12.960Z,9.97
2019-05-07T10:00:42.606Z,6.40
2019-05-07T10:03:12.804Z,6.77
2019-05-07T10:05:42.945Z,5.67
2019-05-07T10:08:12.920Z,8.57
2019-05-07T10:10:44.478Z,6.60
2019-05-07T10:13:22.549Z,8.40
2019-05-07T10:15:52.696Z,6.23
2019-05-07T10:18:22.839Z,5.87
2019-05-07T10:20:52.428Z,8.20
2019-05-07T10:23:22.996Z,4.93
2019-05-07T10:25:53.876Z,7.07
2019-05-07T10:28:24.206Z,8.07
2019-05-07T10:30:54.444Z,6.97
2019-05-07T10:33:23.945Z,5.80
2019-05-07T10:35:53.214Z,7.17
2019-05-07T10:38:22.440Z,4.33
2019-05-07T10:40:52.105Z,7.00
2019-05-07T10:43:22.254Z,5.47
2019-05-07T10:46:03.066Z,7.77
2019-05-07T10:48:51.942Z,6.90
2019-05-07T10:51:21.794Z,7.37
2019-05-07T10:53:51.799Z,4.57
2019-05-07T10:56:22.266Z,4.83
2019-05-07T10:58:52.183Z,4.53
2019-05-07T11:01:23.238Z,4.97
2019-05-07T11:03:52.437Z,9.10
2019-05-07T11:06:22.155Z,7.03
2019-05-07T11:08:51.958Z,7.57
2019-05-07T11:11:21.307Z,7.03
2019-05-07T11:13:53.867Z,4.13
2019-05-07T11:16:23.018Z,5.03
2019-05-07T11:18:53.601Z,8.70
2019-05-07T11:21:24.599Z,6.03
2019-05-07T11:23:53.754Z,4.97
2019-05-07T11:26:23.422Z,8.17
2019-05-07T11:28:52.569Z,4.37
2019-05-07T11:31:22.555Z,4.23
2019-05-07T11:33:52.079Z,10.47
2019-05-07T11:36:21.592Z,9.00
2019-05-07T11:38:52.698Z,8.80
2019-05-07T11:41:23.298Z,7.73
2019-05-07T11:43:54.117Z,7.73
2019-05-07T11:46:33.955Z,7.23
2019-05-07T11:49:04.878Z,8.90
2019-05-07T11:51:51.673Z,8.30
2019-05-07T11:54:21.034Z,4.40
2019-05-07T11:56:51.986Z,8.70
2019-05-07T11:59:22.015Z,7.30
2019-05-07T12:01:53.051Z,6.97
2019-05-07T12:04:22.289Z,10.20
2019-05-07T12:06:52.097Z,6.53
2019-05-07T12:09:21.844Z,9.30
2019-05-07T12:11:52.069Z,9.57
2019-05-07T12:14:31.342Z,5.97
2019-05-07T12:16:53.326Z,5.43
2019-05-07T12:19:22.720Z,10.33
2019-05-07T12:21:52.680Z,10.43
2019-05-07T12:24:22.433Z,6.60
2019-05-07T12:26:52.238Z,9.67
2019-05-07T12:29:22.095Z,15.20
2019-05-07T12:32:05.472Z,7.83
2019-05-07T12:34:39.419Z,9.33
2019-05-07T12:37:08.575Z,8.63
2019-05-07T12:39:37.743Z,5.20
2019-05-07T12:42:07.084Z,7.30
2019-05-07T12:44:36.315Z,8.17
2019-05-07T12:47:06.017Z,8.23
2019-05-07T12:49:35.282Z,4.87
2019-05-07T12:52:06.818Z,4.93
2019-05-07T12:54:46.621Z,7.27
2019-05-07T12:57:15.849Z,5.20
2019-05-07T12:59:45.009Z,7.20
2019-05-07T13:02:33.957Z,7.93
2019-05-07T13:04:47.326Z,8.37
2019-05-07T13:07:24.578Z,9.23
2019-05-07T13:09:54.490Z,11.40
2019-05-07T13:12:23.727Z,7.43
2019-05-07T13:14:52.917Z,6.50
2019-05-07T13:17:22.527Z,12.27
2019-05-07T13:19:52.480Z,7.97
2019-05-07T13:22:22.304Z,7.50
2019-05-07T13:24:52.890Z,5.30
2019-05-07T13:27:22.533Z,6.80
2019-05-07T13:29:53.167Z,8.90
2019-05-07T13:32:24.273Z,6.77
2019-05-07T13:34:54.077Z,12.17
2019-05-07T13:37:24.977Z,6.77
2019-05-07T13:39:58.899Z,6.57
2019-05-07T13:42:32.008Z,7.63
2019-05-07T13:45:02.922Z,9.47
2019-05-07T13:47:34.361Z,4.17
2019-05-07T13:50:04.373Z,7.23
2019-05-07T13:52:34.133Z,6.03
2019-05-07T13:55:04.607Z,8.20
2019-05-07T13:57:33.972Z,6.73
2019-05-07T14:00:05.528Z,5.70
2019-05-07T14:02:34.750Z,4.13
2019-05-07T14:05:05.499Z,7.37
2019-05-07T14:07:36.443Z,3.80
2019-05-07T14:10:05.907Z,12.87
2019-05-07T14:12:35.371Z,6.10
2019-05-07T14:15:05.979Z,5.77
2019-05-07T14:17:35.280Z,6.40
2019-05-07T14:20:06.632Z,7.30
2019-05-07T14:22:35.858Z,5.73
2019-05-07T14:25:06.864Z,12.63
2019-05-07T14:27:36.134Z,4.37
2019-05-07T14:30:07.768Z,10.33
2019-05-07T14:32:54.698Z,3.80
2019-05-07T14:35:32.222Z,4.87
2019-05-07T14:38:03.258Z,7.37
2019-05-07T14:40:32.516Z,4.80
2019-05-07T14:43:09.437Z,11.47
2019-05-07T14:45:38.910Z,6.70
2019-05-07T14:48:08.146Z,8.17
2019-05-07T14:50:37.483Z,6.83
2019-05-07T14:53:06.702Z,8.23
2019-05-07T14:55:35.889Z,4.30
2019-05-07T14:58:05.163Z,5.93
2019-05-07T15:00:35.269Z,8.47
2019-05-07T15:03:04.910Z,8.47
2019-05-07T15:05:34.674Z,7.03
2019-05-07T15:08:10.496Z,8.47
2019-05-07T15:10:34.808Z,9.57
2019-05-07T15:13:04.071Z,6.63
2019-05-07T15:15:33.414Z,5.17
2019-05-07T15:18:04.279Z,10.03
2019-05-07T15:20:33.502Z,8.20
2019-05-07T15:23:13.756Z,5.93
2019-05-07T15:25:43.074Z,8.20
2019-05-07T15:28:13.968Z,5.97
2019-05-07T15:30:57.115Z,5.83
2019-05-07T15:33:26.344Z,9.47
2019-05-07T15:35:55.571Z,7.60
2019-05-07T15:38:24.841Z,7.63
2019-05-07T15:40:54.009Z,10.37
2019-05-07T15:43:23.237Z,9.40
2019-05-07T15:45:52.604Z,6.27
2019-05-07T15:48:22.210Z,8.10
2019-05-07T15:50:52.026Z,7.10
2019-05-07T15:53:38.232Z,7.23
2019-05-07T15:56:07.462Z,7.27
2019-05-07T15:58:36.614Z,7.77
2019-05-07T16:01:05.871Z,5.70
2019-05-07T16:03:39.464Z,8.20
2019-05-07T16:06:08.686Z,4.70
2019-05-07T16:08:39.540Z,16.27
2019-05-07T16:11:08.695Z,3.87
2019-05-07T16:13:48.374Z,6.73
2019-05-07T16:16:17.532Z,5.93
2019-05-07T16:19:03.337Z,8.17
2019-05-07T16:21:32.691Z,6.87
2019-05-07T16:24:04.059Z,4.87
2019-05-07T16:26:33.499Z,5.73
2019-05-07T16:29:04.631Z,9.83
2019-05-07T16:31:33.566Z,9.47
2019-05-07T16:34:02.782Z,6.53
2019-05-07T16:36:32.826Z,7.37
2019-05-07T16:39:03.405Z,14.77
2019-05-07T16:41:32.958Z,7.43
2019-05-07T16:44:02.876Z,11.70
2019-05-07T16:46:32.332Z,9.07
2019-05-07T16:49:02.299Z,9.77
2019-05-07T16:51:33.059Z,8.63
2019-05-07T16:54:03.441Z,5.57
2019-05-07T16:56:33.480Z,9.20
2019-05-07T16:59:07.779Z,6.13
2019-05-07T17:01:37.272Z,4.93
2019-05-07T17:04:06.449Z,8.40
2019-05-07T17:06:36.841Z,7.73
2019-05-07T17:09:13.792Z,7.37
2019-05-07T17:11:43.712Z,10.50
2019-05-07T17:14:13.328Z,7.07
2019-05-07T17:16:42.589Z,6.73
2019-05-07T17:19:13.679Z,5.73
2019-05-07T17:21:43.187Z,9.60
2019-05-07T17:24:12.604Z,6.70
2019-05-07T17:26:42.308Z,5.50
2019-05-07T17:29:12.133Z,9.43
2019-05-07T17:31:42.463Z,10.47
2019-05-07T17:34:12.170Z,10.37
2019-05-07T17:36:42.205Z,9.83
2019-05-07T17:39:12.216Z,9.60
2019-05-07T17:41:43.018Z,7.30
2019-05-07T17:44:12.992Z,6.93
2019-05-07T17:46:44.621Z,6.43
2019-05-07T17:49:13.745Z,9.47
2019-05-07T17:51:44.541Z,7.57
2019-05-07T17:54:14.498Z,9.30
2019-05-07T17:56:44.485Z,4.93
2019-05-07T17:59:13.722Z,11.40
2019-05-07T18:01:50.111Z,11.53
2019-05-07T18:04:18.297Z,10.50
2019-05-07T18:06:47.513Z,6.37
2019-05-07T18:09:16.725Z,8.43
2019-05-07T18:11:45.938Z,8.80
2019-05-07T18:14:15.091Z,10.73
2019-05-07T18:16:53.393Z,9.73
2019-05-07T18:19:22.622Z,8.70
2019-05-07T18:21:52.467Z,9.00
2019-05-07T18:24:22.448Z,8.60
2019-05-07T18:26:52.623Z,10.97
2019-05-07T18:29:22.555Z,19.20
2019-05-07T18:32:02.686Z,12.27
2019-05-07T18:34:32.488Z,8.63
2019-05-07T18:37:02.766Z,13.83
2019-05-07T18:39:32.404Z,16.50
2019-05-07T18:42:02.813Z,13.03
2019-05-07T18:44:32.394Z,13.77
2019-05-07T18:47:02.357Z,9.40
2019-05-07T18:49:31.881Z,9.27
2019-05-07T18:52:02.848Z,12.97
2019-05-07T18:54:31.970Z,18.83
2019-05-07T18:57:02.328Z,18.53
2019-05-07T18:59:34.057Z,14.70
2019-05-07T19:02:04.014Z,12.10
2019-05-07T19:04:33.543Z,9.67
2019-05-07T19:07:03.087Z,14.73
2019-05-07T19:09:32.428Z,14.43
2019-05-07T19:12:01.939Z,8.97
2019-05-07T19:14:33.139Z,18.70
2019-05-07T19:17:03.189Z,12.00
2019-05-07T19:19:32.989Z,16.67
2019-05-07T19:22:02.592Z,22.13
2019-05-07T19:24:44.263Z,19.00
2019-05-07T19:27:02.815Z,20.77
2019-05-07T19:29:32.700Z,21.53
2019-05-07T19:32:03.178Z,15.63
2019-05-07T19:34:33.237Z,14.20
2019-05-07T19:37:02.645Z,13.00
2019-05-07T19:39:32.615Z,18.13
2019-05-07T19:42:02.714Z,36.13
2019-05-07T19:44:32.426Z,24.63
2019-05-07T19:47:02.093Z,15.30
2019-05-07T19:49:32.439Z,16.60
2019-05-07T19:52:01.894Z,12.87
2019-05-07T19:54:32.372Z,17.97
2019-05-07T19:57:02.739Z,16.73
2019-05-07T19:59:32.844Z,17.23
2019-05-07T20:02:03.818Z,17.40
2019-05-07T20:04:33.103Z,12.03
2019-05-07T20:07:02.899Z,17.63
2019-05-07T20:09:33.974Z,20.63
2019-05-07T20:12:03.117Z,19.37
2019-05-07T20:14:33.185Z,26.30
2019-05-07T20:17:02.934Z,20.90
2019-05-07T20:19:32.800Z,14.23
2019-05-07T20:22:05.122Z,20.40
2019-05-07T20:24:34.597Z,21.20
2019-05-07T20:27:03.751Z,18.87
2019-05-07T20:29:33.086Z,23.27
2019-05-07T20:32:02.300Z,25.03
2019-05-07T20:34:32.884Z,22.93
2019-05-07T20:37:02.831Z,33.57
2019-05-07T20:39:32.422Z,38.37
2019-05-07T20:42:03.074Z,33.73
2019-05-07T20:44:32.565Z,39.07
2019-05-07T20:47:02.095Z,32.30
2019-05-07T20:49:32.073Z,27.70
2019-05-07T20:52:01.695Z,24.33
2019-05-07T20:54:35.661Z,32.97
2019-05-07T20:57:22.463Z,51.97
2019-05-07T20:59:52.018Z,51.43
2019-05-07T21:02:22.758Z,50.07
2019-05-07T21:04:52.158Z,52.90
2019-05-07T21:07:22.190Z,51.00
2019-05-07T21:09:52.954Z,50.70
2019-05-07T21:12:22.615Z,43.43
2019-05-07T21:14:52.530Z,48.43
2019-05-07T21:17:22.708Z,60.23
2019-05-07T21:19:52.085Z,63.97
2019-05-07T21:22:22.618Z,51.87
2019-05-07T21:24:53.308Z,57.70
2019-05-07T21:27:23.063Z,62.80
2019-05-07T21:29:52.830Z,63.93
2019-05-07T21:32:23.116Z,59.17
2019-05-07T21:34:52.892Z,75.83
2019-05-07T21:37:22.911Z,66.83
2019-05-07T21:39:53.230Z,61.20
2019-05-07T21:42:22.995Z,57.20
2019-05-07T21:44:52.763Z,55.53
2019-05-07T21:47:22.411Z,55.87
2019-05-07T21:49:54.918Z,49.50
2019-05-07T21:52:23.638Z,59.40
2019-05-07T21:54:57.387Z,59.43
2019-05-07T21:57:33.995Z,66.47
2019-05-07T22:00:12.648Z,67.47
2019-05-07T22:02:42.959Z,59.93
2019-05-07T22:05:12.470Z,54.30
2019-05-07T22:07:41.634Z,62.30
2019-05-07T22:10:12.748Z,51.00
2019-05-07T22:12:41.935Z,52.70
2019-05-07T22:15:15.029Z,48.37
2019-05-07T22:17:44.463Z,48.77
2019-05-07T22:20:14.015Z,55.27
2019-05-07T22:22:43.300Z,54.67
2019-05-07T22:25:13.131Z,55.87
2019-05-07T22:27:42.706Z,65.70
2019-05-07T22:30:14.159Z,48.90
2019-05-07T22:32:47.810Z,65.23
2019-05-07T22:35:18.687Z,68.53
2019-05-07T22:37:48.353Z,56.93
2019-05-07T22:40:17.700Z,59.17
2019-05-07T22:42:46.863Z,74.83
2019-05-07T22:45:16.094Z,71.87
2019-05-07T22:47:45.359Z,76.47
2019-05-07T22:50:14.524Z,67.07
2019-05-07T22:52:43.755Z,66.33
2019-05-07T22:55:14.208Z,68.50
2019-05-07T22:58:00.003Z,79.93
2019-05-07T23:00:34.563Z,76.57
2019-05-07T23:03:03.781Z,56.60
2019-05-07T23:05:33.211Z,55.27
2019-05-07T23:08:02.570Z,61.60
2019-05-07T23:10:33.245Z,66.83
2019-05-07T23:13:02.983Z,67.93
2019-05-07T23:15:32.385Z,65.23
2019-05-07T23:18:04.070Z,54.37
2019-05-07T23:20:32.443Z,48.37
2019-05-07T23:23:01.716Z,55.43
2019-05-07T23:25:32.227Z,48.63
2019-05-07T23:28:04.981Z,49.57
2019-05-07T23:30:33.145Z,44.47
2019-05-07T23:33:02.607Z,53.67
2019-05-07T23:35:32.835Z,61.37
2019-05-07T23:38:02.547Z,53.20
2019-05-07T23:40:39.330Z,58.67
2019-05-07T23:43:12.157Z,53.60
2019-05-07T23:45:42.031Z,53.23
2019-05-07T23:48:12.297Z,51.10
2019-05-07T23:50:41.978Z,54.70
2019-05-07T23:53:12.963Z,58.10
2019-05-07T23:55:42.507Z,50.77
2019-05-07T23:58:13.850Z,52.70
